Finchford, Iowa
Current Conditions -  °F | °C
As of 1:54 PM on Friday 21 Nov 2014 (Local Time) from KALO Reporting Station
Clear Clear  
Wind Chill: 19°   Ceiling: Unl
Heat Index: 30°   Visibility: 10mi
Dew Point: 19°   Wind: 15mph
Humidity: 64%   Direction: 170°S
Pressure: 30.18"   Gusts: NA
Location:  42.6537°N, 92.488°W
Report Text: KALO 211954Z 17013KT 10SM CLR M01/M07 A3018 RMK AO2 SLP239 T10111072
Loading
Personal Weather Stations






























Interactive Weather Map New forecast layout! Learn more

10-Day Weather Forecast

Advertisements
Track Severe Weather on mobile